createdAt,value
2024-04-30T00:02:02.653Z,46.40
2024-04-30T00:06:55.757Z,45.91
2024-04-30T00:11:48.481Z,45.44
2024-04-30T00:16:42.603Z,45.15
2024-04-30T00:21:43.008Z,45.47
2024-04-30T00:26:36.576Z,45.38
2024-04-30T00:31:29.246Z,45.59
2024-04-30T00:36:22.852Z,45.72
2024-04-30T00:41:15.845Z,45.54
2024-04-30T00:46:09.380Z,45.63
2024-04-30T00:51:05.027Z,45.75
2024-04-30T00:55:57.757Z,45.64
2024-04-30T01:00:50.400Z,45.80
2024-04-30T01:05:43.631Z,46.17
2024-04-30T01:10:36.441Z,46.15
2024-04-30T01:15:29.333Z,46.36
2024-04-30T01:20:21.904Z,46.90
2024-04-30T01:25:14.559Z,47.14
2024-04-30T01:30:08.501Z,47.65
2024-04-30T01:35:01.122Z,47.98
2024-04-30T01:39:54.011Z,47.91
2024-04-30T01:44:46.591Z,48.23
2024-04-30T01:49:39.259Z,48.42
2024-04-30T01:54:31.828Z,48.81
2024-04-30T01:59:24.451Z,48.56
2024-04-30T02:04:17.069Z,48.67
2024-04-30T02:09:10.499Z,48.86
2024-04-30T02:14:03.092Z,49.11
2024-04-30T02:18:55.639Z,49.45
2024-04-30T02:23:48.666Z,49.42
2024-04-30T02:28:41.307Z,49.67
2024-04-30T02:33:51.586Z,49.93
2024-04-30T02:38:44.167Z,50.29
2024-04-30T02:43:37.252Z,50.62
2024-04-30T02:48:29.883Z,50.71
2024-04-30T02:53:22.511Z,50.97
2024-04-30T02:58:15.095Z,51.10
2024-04-30T03:03:07.728Z,51.20
2024-04-30T03:08:00.338Z,51.13
2024-04-30T03:12:53.021Z,51.45
2024-04-30T03:17:47.903Z,51.75
2024-04-30T03:22:41.972Z,51.91
2024-04-30T03:27:35.235Z,52.34
2024-04-30T03:32:27.868Z,52.74
2024-04-30T03:37:20.684Z,52.76
2024-04-30T03:42:13.456Z,52.97
2024-04-30T03:47:06.200Z,53.18
2024-04-30T03:51:58.788Z,53.55
2024-04-30T03:56:51.357Z,53.69
2024-04-30T04:01:43.972Z,53.68
2024-04-30T04:06:36.636Z,54.04
2024-04-30T04:11:46.629Z,54.11
2024-04-30T04:16:39.315Z,54.26
2024-04-30T04:21:32.938Z,54.48
2024-04-30T04:26:25.531Z,54.69
2024-04-30T04:31:18.272Z,54.93
2024-04-30T04:36:15.620Z,54.92
2024-04-30T04:41:08.170Z,55.16
2024-04-30T04:46:01.449Z,55.28
2024-04-30T04:50:54.243Z,55.07
2024-04-30T04:55:46.948Z,54.80
2024-04-30T05:00:39.543Z,54.88
2024-04-30T05:05:32.153Z,54.84
2024-04-30T05:10:24.791Z,54.52
2024-04-30T05:15:17.490Z,54.74
2024-04-30T05:20:10.499Z,54.31
2024-04-30T05:25:03.111Z,54.19
2024-04-30T05:29:57.816Z,53.78
2024-04-30T05:34:50.870Z,53.31
2024-04-30T05:39:43.442Z,53.01
2024-04-30T05:44:36.024Z,52.56
2024-04-30T05:49:28.735Z,51.79
2024-04-30T05:54:21.640Z,51.32
2024-04-30T05:59:14.898Z,50.60
2024-04-30T06:04:07.633Z,49.86
2024-04-30T06:09:01.156Z,49.31
2024-04-30T06:13:53.857Z,49.00
2024-04-30T06:18:46.490Z,48.37
2024-04-30T06:23:39.139Z,47.29
2024-04-30T06:28:34.181Z,46.25
2024-04-30T06:33:27.534Z,45.18
2024-04-30T06:38:20.164Z,44.80
2024-04-30T06:43:12.814Z,44.84
2024-04-30T06:48:06.582Z,43.61
2024-04-30T06:52:59.366Z,42.36
2024-04-30T06:57:51.934Z,41.29
2024-04-30T07:02:44.652Z,40.70
2024-04-30T07:07:37.386Z,39.69
2024-04-30T07:12:30.016Z,39.01
2024-04-30T07:17:22.949Z,38.85
2024-04-30T07:22:17.249Z,39.64
2024-04-30T07:27:09.918Z,39.59
2024-04-30T07:32:02.565Z,38.76
2024-04-30T07:36:55.207Z,35.88
2024-04-30T07:41:47.768Z,34.32
2024-04-30T07:46:40.360Z,35.29
2024-04-30T07:51:32.981Z,34.41
2024-04-30T07:56:25.559Z,33.82
2024-04-30T08:01:18.423Z,33.07
2024-04-30T08:06:18.550Z,32.86
2024-04-30T08:11:13.483Z,33.84
2024-04-30T08:16:06.633Z,33.52
2024-04-30T08:20:59.335Z,33.52
2024-04-30T08:25:51.897Z,33.12
2024-04-30T08:30:44.646Z,33.69
2024-04-30T08:35:37.554Z,34.52
2024-04-30T08:40:33.400Z,35.30
2024-04-30T08:45:28.329Z,35.85
2024-04-30T08:50:26.442Z,36.21
2024-04-30T08:55:20.673Z,36.18
2024-04-30T09:06:07.439Z,36.08
2024-04-30T09:11:00.119Z,36.27
2024-04-30T09:16:02.279Z,36.83
2024-04-30T09:20:57.151Z,36.80
2024-04-30T09:25:50.209Z,36.30
2024-04-30T09:30:43.964Z,35.68
2024-04-30T09:35:37.092Z,35.66
2024-04-30T09:40:31.209Z,35.76
2024-04-30T09:45:24.860Z,35.67
2024-04-30T09:50:18.470Z,35.53
2024-04-30T09:55:12.156Z,35.71
2024-04-30T10:00:05.030Z,33.29
2024-04-30T10:05:05.950Z,30.77
2024-04-30T10:09:58.618Z,28.77
2024-04-30T10:14:51.402Z,27.08
2024-04-30T10:19:46.684Z,26.10
2024-04-30T10:24:42.128Z,25.19
2024-04-30T10:29:34.844Z,24.55
2024-04-30T10:34:27.430Z,24.25
2024-04-30T10:39:27.486Z,23.71
2024-04-30T10:44:20.128Z,23.37
2024-04-30T10:49:13.389Z,23.16
2024-04-30T10:54:06.417Z,23.38
2024-04-30T10:59:00.250Z,23.40
2024-04-30T11:03:53.998Z,23.37
2024-04-30T11:08:47.561Z,23.05
2024-04-30T11:13:40.267Z,23.31
2024-04-30T11:18:34.584Z,23.33
2024-04-30T11:23:27.872Z,23.70
2024-04-30T11:28:20.510Z,24.03
2024-04-30T11:33:13.185Z,24.44
2024-04-30T11:38:06.463Z,25.28
2024-04-30T11:42:59.126Z,25.70
2024-04-30T11:47:52.481Z,26.55
2024-04-30T11:52:45.352Z,27.19
2024-04-30T11:57:38.111Z,27.75
2024-04-30T12:02:30.818Z,28.25
2024-04-30T12:07:23.632Z,28.84
2024-04-30T12:12:17.095Z,29.00
2024-04-30T12:17:09.740Z,28.91
2024-04-30T12:22:02.346Z,29.07
2024-04-30T12:26:55.824Z,28.97
2024-04-30T12:31:48.417Z,28.76
2024-04-30T12:36:43.316Z,28.93
2024-04-30T12:41:42.156Z,29.41
2024-04-30T12:46:34.842Z,29.94
2024-04-30T12:51:27.574Z,29.89
2024-04-30T12:56:20.787Z,29.59
2024-04-30T13:01:17.962Z,30.00
2024-04-30T13:06:12.919Z,29.27
2024-04-30T13:11:06.085Z,29.14
2024-04-30T13:15:58.792Z,29.46
2024-04-30T13:20:51.446Z,29.06
2024-04-30T13:25:44.168Z,28.75
2024-04-30T13:30:38.912Z,28.66
2024-04-30T13:35:31.641Z,28.83
2024-04-30T13:40:24.400Z,28.93
2024-04-30T13:45:17.261Z,28.82
2024-04-30T13:50:11.654Z,29.35
2024-04-30T13:55:04.946Z,28.56
2024-04-30T13:59:57.571Z,28.66
2024-04-30T14:04:50.793Z,28.83
2024-04-30T14:09:43.495Z,28.59
2024-04-30T14:14:37.660Z,28.22
2024-04-30T14:19:33.005Z,28.02
2024-04-30T14:24:27.245Z,28.04
2024-04-30T14:29:21.282Z,28.18
2024-04-30T14:34:14.073Z,27.93
2024-04-30T14:39:10.303Z,27.84
2024-04-30T14:44:03.639Z,27.87
2024-04-30T14:48:56.595Z,27.75
2024-04-30T14:53:49.297Z,27.85
2024-04-30T14:58:42.516Z,27.90
2024-04-30T15:03:35.950Z,28.11
2024-04-30T15:08:28.618Z,28.11
2024-04-30T15:13:21.231Z,28.74
2024-04-30T15:18:15.091Z,28.68
2024-04-30T15:23:09.264Z,28.73
2024-04-30T15:28:02.122Z,29.04
2024-04-30T15:32:55.325Z,28.83
2024-04-30T15:37:48.031Z,29.20
2024-04-30T15:42:40.916Z,29.20
2024-04-30T15:47:33.562Z,29.36
2024-04-30T15:52:26.237Z,29.50
2024-04-30T15:57:18.864Z,29.74
2024-04-30T16:02:11.448Z,29.45
2024-04-30T16:07:04.134Z,29.48
2024-04-30T16:11:57.807Z,29.97
2024-04-30T16:16:50.780Z,30.30
2024-04-30T16:21:43.904Z,30.47
2024-04-30T16:26:36.485Z,30.77
2024-04-30T16:36:26.663Z,31.03
2024-04-30T16:41:19.477Z,31.17
2024-04-30T16:46:12.520Z,31.22
2024-04-30T16:51:13.556Z,31.31
2024-04-30T16:56:07.011Z,31.28
2024-04-30T17:00:59.810Z,31.33
2024-04-30T17:05:52.618Z,31.77
2024-04-30T17:10:45.383Z,31.85
2024-04-30T17:15:39.176Z,32.26
2024-04-30T17:20:31.828Z,32.67
2024-04-30T17:25:24.417Z,32.93
2024-04-30T17:30:17.104Z,33.23
2024-04-30T17:35:09.788Z,33.73
2024-04-30T17:40:02.958Z,34.25
2024-04-30T17:44:55.649Z,34.33
2024-04-30T17:49:48.329Z,34.64
2024-04-30T17:54:40.932Z,34.95
2024-04-30T17:59:33.590Z,35.98
2024-04-30T18:04:26.239Z,36.10
2024-04-30T18:09:18.962Z,36.48
2024-04-30T18:14:11.681Z,36.85
2024-04-30T18:19:04.273Z,37.42
2024-04-30T18:23:57.529Z,37.68
2024-04-30T18:28:55.783Z,37.87
2024-04-30T18:33:50.465Z,38.37
2024-04-30T18:38:44.550Z,39.02
2024-04-30T18:43:39.660Z,39.31
2024-04-30T18:48:32.368Z,39.56
2024-04-30T18:53:25.024Z,39.92
2024-04-30T18:58:17.627Z,40.40
2024-04-30T19:03:11.945Z,40.43
2024-04-30T19:08:04.698Z,40.66
2024-04-30T19:12:58.374Z,40.86
2024-04-30T19:17:51.331Z,41.45
2024-04-30T19:22:44.107Z,41.63
2024-04-30T19:27:37.082Z,42.02
2024-04-30T19:32:30.197Z,42.00
2024-04-30T19:37:22.768Z,42.28
2024-04-30T19:42:15.383Z,42.51
2024-04-30T19:47:08.647Z,42.67
2024-04-30T19:52:01.384Z,42.75
2024-04-30T19:56:54.010Z,43.03
2024-04-30T20:01:46.887Z,42.87
2024-04-30T20:06:43.813Z,42.84
2024-04-30T20:11:38.590Z,42.88
2024-04-30T20:16:31.929Z,42.86
2024-04-30T20:21:26.252Z,43.06
2024-04-30T20:26:18.963Z,43.15
2024-04-30T20:31:11.610Z,43.00
2024-04-30T20:36:04.364Z,43.00
2024-04-30T20:40:56.968Z,43.47
2024-04-30T20:45:49.681Z,43.21
2024-04-30T20:50:43.542Z,43.40
2024-04-30T20:55:36.199Z,43.39
2024-04-30T21:00:28.925Z,43.63
2024-04-30T21:05:21.755Z,43.80
2024-04-30T21:10:14.414Z,44.19
2024-04-30T21:15:07.706Z,44.54
2024-04-30T21:20:00.613Z,44.55
2024-04-30T21:24:53.219Z,44.72
2024-04-30T21:29:46.106Z,45.11
2024-04-30T21:34:38.945Z,44.88
2024-04-30T21:39:31.755Z,44.83
2024-04-30T21:44:24.351Z,44.87
2024-04-30T21:49:17.272Z,45.23
2024-04-30T21:54:10.796Z,45.34
2024-04-30T21:59:03.680Z,45.62
2024-04-30T22:03:56.338Z,45.79
2024-04-30T22:08:48.950Z,46.02
2024-04-30T22:13:41.632Z,46.28
2024-04-30T22:18:36.466Z,46.34
2024-04-30T22:23:33.710Z,46.64
2024-04-30T22:28:26.663Z,46.85
2024-04-30T22:33:20.089Z,47.04
2024-04-30T22:38:12.773Z,47.27
2024-04-30T22:43:05.610Z,47.56
2024-04-30T22:48:02.389Z,47.69
2024-04-30T22:52:55.750Z,47.90
2024-04-30T22:57:48.359Z,48.12
2024-04-30T23:02:41.007Z,48.52
2024-04-30T23:07:35.746Z,48.55
2024-04-30T23:12:29.102Z,48.83
2024-04-30T23:17:25.641Z,48.98
2024-04-30T23:22:18.731Z,49.58
2024-04-30T23:27:11.387Z,49.64
2024-04-30T23:32:04.248Z,49.81
2024-04-30T23:36:57.037Z,49.92
2024-04-30T23:41:50.046Z,50.15
2024-04-30T23:46:42.730Z,50.40
2024-04-30T23:51:35.284Z,50.86
2024-04-30T23:56:27.847Z,50.82
